Time;durP1;ratioP1;P1;durP2;ratioP2;P2;SDS_P1;SDS_P2;PMS_P1;PMS_P2;Temp;Humidity;BMP_temperature;BMP_pressure;BME280_temperature;BME280_humidity;BME280_pressure;Samples;Min_cycle;Max_cycle;Signal;HPM_P1;HPM_P2
2021/07/10 00:02:09;;;;;;;3.78;1.98;;;19.20;99.90;;;;;;4916326;29;20204;-90
2021/07/10 00:04:35;;;;;;;9.77;2.47;;;19.20;99.90;;;;;;4934551;29;20191;-91
2021/07/10 00:07:04;;;;;;;5.50;2.72;;;19.20;99.90;;;;;;4934110;29;20183;-93
2021/07/10 00:09:30;;;;;;;3.38;2.20;;;19.20;99.90;;;;;;4901048;29;20180;-91
2021/07/10 00:11:56;;;;;;;3.90;1.70;;;19.10;99.90;;;;;;4933661;29;20188;-92
2021/07/10 00:14:22;;;;;;;3.28;1.95;;;19.20;99.90;;;;;;4936760;29;20701;-91
2021/07/10 00:16:48;;;;;;;6.15;1.90;;;19.10;99.90;;;;;;4936950;29;20263;-90
2021/07/10 00:19:13;;;;;;;5.35;1.98;;;19.20;99.90;;;;;;4919892;29;20223;-91
2021/07/10 00:21:39;;;;;;;5.03;2.05;;;19.20;99.90;;;;;;4904474;29;21039;-92
2021/07/10 00:24:05;;;;;;;5.57;2.78;;;19.10;99.90;;;;;;4938844;29;20223;-91
2021/07/10 00:26:32;;;;;;;5.78;2.78;;;19.10;99.90;;;;;;4921183;29;20183;-90
2021/07/10 00:28:58;;;;;;;4.65;2.42;;;19.10;99.90;;;;;;4921510;29;20219;-91
2021/07/10 00:31:23;;;;;;;5.50;2.67;;;19.20;99.90;;;;;;4921127;29;20184;-91
2021/07/10 00:33:49;;;;;;;5.95;3.10;;;19.30;99.90;;;;;;4890280;29;20607;-90
2021/07/10 00:36:15;;;;;;;5.25;2.65;;;19.50;99.90;;;;;;4921514;29;20575;-91
2021/07/10 00:38:40;;;;;;;3.92;2.00;;;19.50;99.90;;;;;;4921218;29;20184;-90
2021/07/10 00:41:06;;;;;;;8.38;2.47;;;19.60;99.90;;;;;;4938073;29;20255;-93
2021/07/10 00:43:31;;;;;;;11.48;2.10;;;19.60;99.90;;;;;;4905876;29;20245;-92
2021/07/10 00:45:57;;;;;;;5.35;2.10;;;19.60;99.90;;;;;;4922194;29;20212;-92
2021/07/10 00:48:23;;;;;;;3.63;1.90;;;19.60;99.90;;;;;;4906962;29;20243;-89
2021/07/10 00:50:49;;;;;;;6.20;2.67;;;18.10;99.90;;;;;;4921350;29;20700;-91
2021/07/10 00:53:15;;;;;;;5.25;2.70;;;19.30;99.90;;;;;;4938338;29;20642;-91
2021/07/10 00:55:41;;;;;;;5.95;2.13;;;19.30;99.90;;;;;;4905097;29;20549;-91
2021/07/10 00:58:09;;;;;;;7.10;2.60;;;19.20;99.90;;;;;;4937794;29;20187;-91
2021/07/10 01:00:35;;;;;;;5.50;2.63;;;19.20;99.90;;;;;;4937658;29;20329;-91
2021/07/10 01:03:01;;;;;;;5.32;2.67;;;19.20;99.90;;;;;;4889638;29;20191;-90
2021/07/10 01:05:28;;;;;;;5.53;2.88;;;19.20;99.90;;;;;;4937993;29;20192;-90
2021/07/10 01:07:55;;;;;;;4.95;3.20;;;19.20;99.90;;;;;;4921177;29;20728;-91
2021/07/10 01:10:22;;;;;;;5.50;2.88;;;19.20;99.90;;;;;;4920861;29;20608;-91
2021/07/10 01:12:50;;;;;;;6.55;3.05;;;19.20;99.90;;;;;;4921189;29;20192;-92
2021/07/10 01:15:20;;;;;;;9.15;4.03;;;19.20;99.90;;;;;;4938052;29;20203;-92
2021/07/10 01:17:46;;;;;;;12.55;3.78;;;19.20;99.90;;;;;;4920629;29;20531;-92
2021/07/10 01:20:24;;;;;;;6.60;4.30;;;19.20;99.90;;;;;;4920626;29;20191;-91
2021/07/10 01:22:50;;;;;;;7.35;3.55;;;19.20;99.90;;;;;;4937483;29;20263;-92
2021/07/10 01:25:19;;;;;;;6.07;3.40;;;19.20;99.90;;;;;;4938178;29;20188;-92
2021/07/10 01:27:45;;;;;;;5.53;3.50;;;19.20;99.90;;;;;;4937908;29;20184;-92
2021/07/10 01:30:16;;;;;;;5.80;3.53;;;19.20;99.90;;;;;;4938286;29;20179;-92
2021/07/10 01:32:44;;;;;;;5.25;3.78;;;19.20;99.90;;;;;;4937830;29;20175;-92
2021/07/10 01:35:10;;;;;;;8.88;4.10;;;19.10;99.90;;;;;;4921351;29;20267;-92
2021/07/10 01:37:41;;;;;;;6.28;4.07;;;19.20;99.90;;;;;;4904937;29;20315;-93
2021/07/10 01:40:08;;;;;;;6.50;4.03;;;19.20;99.90;;;;;;4920986;29;20187;-92
2021/07/10 01:42:34;;;;;;;5.20;4.18;;;19.30;99.90;;;;;;4904342;29;20271;-92
2021/07/10 01:45:00;;;;;;;8.02;4.40;;;19.20;99.90;;;;;;4938305;29;20316;-92
2021/07/10 01:47:26;;;;;;;10.32;4.30;;;19.30;99.90;;;;;;4904646;29;20595;-93
2021/07/10 01:49:52;;;;;;;6.97;4.32;;;19.20;99.90;;;;;;4917444;29;20287;-92
2021/07/10 01:52:18;;;;;;;7.15;4.55;;;19.20;99.90;;;;;;4917940;29;20183;-91
2021/07/10 01:54:44;;;;;;;7.05;4.75;;;19.20;99.90;;;;;;4917183;29;20184;-92
2021/07/10 01:57:10;;;;;;;6.43;4.60;;;19.20;99.90;;;;;;4901157;29;20187;-91
2021/07/10 01:59:37;;;;;;;9.68;5.05;;;19.20;99.90;;;;;;4916421;29;20185;-91
2021/07/10 02:02:04;;;;;;;7.07;4.80;;;19.10;99.90;;;;;;4917811;29;20311;-93
2021/07/10 02:04:30;;;;;;;8.75;4.82;;;19.10;99.90;;;;;;4901093;29;20193;-90
2021/07/10 02:06:55;;;;;;;8.15;4.13;;;19.10;99.90;;;;;;4916487;29;20580;-92
2021/07/10 02:09:21;;;;;;;9.90;4.72;;;19.10;99.90;;;;;;4885614;29;20244;-92
2021/07/10 02:11:50;;;;;;;10.68;4.68;;;19.10;99.90;;;;;;4900692;29;20216;-91
2021/07/10 02:14:17;;;;;;;11.25;5.00;;;19.10;99.90;;;;;;4917786;29;20187;-92
2021/07/10 02:16:44;;;;;;;8.32;5.00;;;19.00;99.90;;;;;;4916260;29;20184;-92
2021/07/10 02:19:10;;;;;;;7.75;4.88;;;19.10;99.90;;;;;;4916888;29;20224;-91
2021/07/10 02:21:37;;;;;;;9.20;5.13;;;19.10;99.90;;;;;;4917730;29;20204;-91
2021/07/10 02:24:07;;;;;;;8.35;4.63;;;19.10;99.90;;;;;;4916648;29;20192;-92
2021/07/10 02:26:34;;;;;;;14.65;4.53;;;19.10;99.90;;;;;;4916715;29;20244;-91
2021/07/10 02:29:00;;;;;;;8.32;4.30;;;19.10;99.90;;;;;;4916720;29;20706;-93
2021/07/10 02:31:26;;;;;;;5.30;3.83;;;19.00;99.90;;;;;;4916484;29;20184;-92
2021/07/10 02:33:52;;;;;;;10.57;4.32;;;18.90;99.90;;;;;;4915883;29;20215;-92
2021/07/10 02:36:18;;;;;;;8.77;4.55;;;18.80;99.90;;;;;;4905019;29;20177;-93
2021/07/10 02:38:44;;;;;;;9.45;4.25;;;18.80;99.90;;;;;;4919815;29;20187;-90
2021/07/10 02:41:10;;;;;;;8.75;5.05;;;18.70;99.90;;;;;;4916346;29;20208;-90
2021/07/10 02:43:35;;;;;;;15.35;4.38;;;18.60;99.90;;;;;;4915947;29;20192;-91
2021/07/10 02:46:01;;;;;;;8.55;4.82;;;18.60;99.90;;;;;;4916962;29;20185;-90
2021/07/10 02:48:27;;;;;;;10.57;4.93;;;18.60;99.90;;;;;;4916170;29;20244;-91
2021/07/10 02:50:52;;;;;;;11.90;4.55;;;18.70;99.90;;;;;;4930185;29;20246;-89
2021/07/10 02:53:18;;;;;;;11.65;5.32;;;18.70;99.90;;;;;;4919142;29;20544;-90
2021/07/10 02:55:44;;;;;;;10.57;5.13;;;18.60;99.90;;;;;;4918767;29;20219;-91
2021/07/10 02:58:09;;;;;;;12.98;5.63;;;18.70;99.90;;;;;;4887893;29;20186;-90
2021/07/10 03:00:35;;;;;;;8.80;5.35;;;18.70;99.90;;;;;;4918982;29;20212;-90
2021/07/10 03:03:01;;;;;;;13.20;5.50;;;18.70;99.90;;;;;;4918741;29;20779;-90
2021/07/10 03:05:33;;;;;;;10.07;5.28;;;18.60;99.90;;;;;;4903419;29;20224;-91
2021/07/10 03:08:03;;;;;;;16.20;6.50;;;18.60;99.90;;;;;;4918574;29;20543;-90
2021/07/10 03:10:28;;;;;;;8.98;5.95;;;18.60;99.90;;;;;;4918836;29;20183;-91
2021/07/10 03:12:56;;;;;;;11.75;6.65;;;18.60;99.90;;;;;;4935649;29;20216;-90
2021/07/10 03:15:22;;;;;;;12.35;6.30;;;18.60;99.90;;;;;;4935736;29;20633;-91
2021/07/10 03:17:49;;;;;;;22.13;7.32;;;18.60;99.90;;;;;;4918519;29;20195;-90
2021/07/10 03:20:16;;;;;;;12.18;6.68;;;18.60;99.90;;;;;;4918837;29;20270;-92
2021/07/10 03:22:42;;;;;;;14.82;7.25;;;18.60;99.90;;;;;;4935878;29;20703;-90
2021/07/10 03:25:10;;;;;;;12.38;6.82;;;18.60;99.90;;;;;;4935548;29;20312;-91
2021/07/10 03:27:36;;;;;;;13.82;7.93;;;18.60;99.90;;;;;;4935727;29;20180;-89
2021/07/10 03:30:04;;;;;;;18.33;7.43;;;18.60;99.90;;;;;;4935185;29;20195;-91
2021/07/10 03:32:30;;;;;;;10.85;7.30;;;18.60;99.90;;;;;;4935669;29;20172;-89
2021/07/10 03:34:55;;;;;;;12.88;6.90;;;18.60;99.90;;;;;;4918772;29;20184;-90
2021/07/10 03:37:21;;;;;;;11.93;6.03;;;18.60;99.90;;;;;;4919084;29;20207;-91
2021/07/10 03:39:46;;;;;;;14.90;6.80;;;18.70;99.90;;;;;;4921474;29;20183;-89
2021/07/10 03:42:12;;;;;;;14.30;7.32;;;18.70;99.90;;;;;;4918569;29;20207;-90
2021/07/10 03:44:38;;;;;;;18.10;7.80;;;18.80;99.90;;;;;;4902881;29;20192;-88
2021/07/10 03:47:04;;;;;;;11.00;6.88;;;18.80;99.90;;;;;;4937488;29;20176;-89
2021/07/10 03:49:29;;;;;;;17.65;7.35;;;18.80;99.90;;;;;;4906250;29;20239;-88
2021/07/10 03:51:55;;;;;;;15.95;7.50;;;18.90;99.90;;;;;;4938926;29;20183;-90
2021/07/10 03:54:21;;;;;;;18.42;8.00;;;18.90;99.90;;;;;;4922239;29;20300;-92
2021/07/10 03:56:46;;;;;;;14.13;8.65;;;18.90;99.90;;;;;;4939325;29;20176;-90
2021/07/10 03:59:12;;;;;;;15.95;7.93;;;18.90;99.90;;;;;;4938845;29;20643;-90
2021/07/10 04:01:41;;;;;;;18.73;8.70;;;19.00;99.90;;;;;;4938903;29;20570;-90
2021/07/10 04:04:07;;;;;;;15.35;8.50;;;19.00;99.90;;;;;;4921833;29;20680;-91
2021/07/10 04:06:33;;;;;;;15.43;8.27;;;19.10;99.90;;;;;;4922001;29;20288;-91
2021/07/10 04:08:59;;;;;;;13.90;8.52;;;19.00;99.90;;;;;;4921892;29;20251;-90
2021/07/10 04:11:24;;;;;;;12.73;7.95;;;19.10;99.90;;;;;;4938880;29;20242;-91
2021/07/10 04:13:50;;;;;;;34.60;9.18;;;19.10;99.90;;;;;;4921992;29;20700;-86
2021/07/10 04:16:16;;;;;;;26.00;9.52;;;19.20;99.90;;;;;;4906395;29;20179;-91
2021/07/10 04:18:41;;;;;;;17.10;9.20;;;19.20;99.90;;;;;;4924797;29;20176;-90
2021/07/10 04:21:07;;;;;;;19.70;10.23;;;19.30;99.90;;;;;;4908451;29;20306;-91
2021/07/10 04:23:32;;;;;;;14.20;10.00;;;19.40;99.90;;;;;;4906044;29;20196;-91
2021/07/10 04:25:58;;;;;;;19.90;9.63;;;19.40;99.90;;;;;;4938571;29;20203;-91
2021/07/10 04:28:24;;;;;;;19.52;10.20;;;19.50;99.90;;;;;;4938699;29;20184;-91
2021/07/10 04:30:50;;;;;;;21.85;10.32;;;19.50;99.90;;;;;;4938395;29;20653;-91
2021/07/10 04:33:16;;;;;;;19.35;10.60;;;19.50;99.90;;;;;;4921874;29;20274;-90
2021/07/10 04:35:41;;;;;;;15.88;9.55;;;19.50;99.90;;;;;;4938914;29;20271;-90
2021/07/10 04:38:07;;;;;;;18.33;11.10;;;19.50;99.90;;;;;;4921745;29;20298;-91
2021/07/10 04:40:33;;;;;;;18.77;10.57;;;19.50;99.90;;;;;;4921809;29;20266;-91
2021/07/10 04:42:58;;;;;;;18.27;10.70;;;19.50;99.90;;;;;;4921404;29;20195;-91
2021/07/10 04:45:24;;;;;;;23.98;11.88;;;19.60;99.90;;;;;;4921330;29;20186;-90
2021/07/10 04:47:50;;;;;;;19.70;10.70;;;19.60;99.90;;;;;;4921289;29;20184;-90
2021/07/10 04:50:16;;;;;;;19.55;10.32;;;19.70;99.90;;;;;;4920729;29;20268;-90
2021/07/10 04:52:43;;;;;;;18.95;10.25;;;19.90;99.90;;;;;;4938192;29;20176;-91
2021/07/10 04:55:14;;;;;;;16.02;9.50;;;19.90;99.90;;;;;;4937851;29;20215;-90
2021/07/10 04:57:41;;;;;;;22.50;9.63;;;20.00;99.90;;;;;;4937722;29;20252;-90
2021/07/10 05:00:07;;;;;;;16.80;9.48;;;20.00;99.90;;;;;;4920333;29;20184;-92
2021/07/10 05:02:33;;;;;;;22.48;10.75;;;20.10;99.90;;;;;;4921203;29;20195;-90
2021/07/10 05:04:59;;;;;;;14.18;8.88;;;20.10;99.90;;;;;;4937659;29;20611;-92
2021/07/10 05:07:25;;;;;;;18.92;9.55;;;20.20;99.90;;;;;;4905237;29;20180;-91
2021/07/10 05:09:51;;;;;;;14.07;8.50;;;20.30;99.90;;;;;;4937839;29;20188;-92
2021/07/10 05:12:20;;;;;;;17.70;9.55;;;20.30;99.90;;;;;;4920879;29;20191;-90
2021/07/10 05:14:47;;;;;;;19.15;9.55;;;20.40;99.90;;;;;;4921358;29;20194;-92
2021/07/10 05:17:12;;;;;;;18.77;9.52;;;20.50;99.90;;;;;;4904875;29;20187;-91
2021/07/10 05:19:38;;;;;;;16.65;9.07;;;20.50;99.90;;;;;;4921090;29;20180;-93
2021/07/10 05:22:04;;;;;;;17.02;8.80;;;20.60;99.90;;;;;;4920527;29;20723;-92
2021/07/10 05:24:30;;;;;;;15.32;9.80;;;20.60;99.90;;;;;;4937634;29;20192;-90
2021/07/10 05:26:55;;;;;;;19.00;10.48;;;20.60;99.90;;;;;;4937634;29;20192;-91
2021/07/10 05:29:21;;;;;;;21.23;10.98;;;20.60;99.90;;;;;;4920413;29;20667;-95
2021/07/10 05:31:47;;;;;;;17.90;11.05;;;20.70;99.90;;;;;;4920951;29;20188;-93
2021/07/10 05:34:12;;;;;;;20.52;10.40;;;20.80;99.90;;;;;;4920201;29;20190;-91
2021/07/10 05:36:38;;;;;;;16.55;9.57;;;20.90;99.90;;;;;;4920445;29;20585;-92
2021/07/10 05:39:04;;;;;;;15.98;9.25;;;21.00;99.90;;;;;;4920000;29;20243;-92
2021/07/10 05:41:30;;;;;;;15.52;9.43;;;21.00;99.90;;;;;;4919617;29;20238;-91
2021/07/10 05:43:56;;;;;;;15.10;10.20;;;21.00;99.90;;;;;;4934774;29;20686;-92
2021/07/10 05:46:22;;;;;;;12.80;9.15;;;21.10;99.90;;;;;;4904561;29;20212;-94
2021/07/10 05:48:47;;;;;;;14.05;8.68;;;21.20;99.90;;;;;;4919809;29;20716;-92
2021/07/10 05:51:13;;;;;;;15.93;9.20;;;21.20;99.90;;;;;;4904895;29;20247;-94
2021/07/10 05:53:39;;;;;;;13.73;9.02;;;21.30;99.90;;;;;;4937415;29;20184;-92
2021/07/10 05:56:05;;;;;;;14.93;8.48;;;21.40;99.90;;;;;;4919235;29;20192;-91
2021/07/10 05:58:30;;;;;;;17.55;9.40;;;21.50;99.90;;;;;;4919811;29;20267;-91
2021/07/10 06:00:58;;;;;;;11.48;8.13;;;21.60;99.90;;;;;;4904593;29;20291;-93
2021/07/10 06:03:24;;;;;;;16.25;8.88;;;21.70;99.90;;;;;;4936209;29;20247;-92
2021/07/10 06:05:50;;;;;;;11.93;7.93;;;21.80;99.90;;;;;;4903435;29;20270;-91
2021/07/10 06:08:15;;;;;;;16.35;8.90;;;21.90;99.90;;;;;;4919418;29;20246;-92
2021/07/10 06:10:41;;;;;;;13.13;8.15;;;22.00;99.90;;;;;;4902521;29;20574;-90
2021/07/10 06:13:07;;;;;;;12.43;8.98;;;22.00;99.90;;;;;;4918665;29;20322;-90
2021/07/10 06:15:33;;;;;;;13.27;9.00;;;22.10;99.90;;;;;;4918982;29;20650;-91
2021/07/10 06:17:58;;;;;;;11.40;7.32;;;22.10;99.90;;;;;;4918857;29;20637;-92
2021/07/10 06:20:24;;;;;;;14.40;8.70;;;22.20;99.90;;;;;;4903008;29;20626;-91
2021/07/10 06:22:51;;;;;;;13.30;7.70;;;22.10;99.90;;;;;;4918837;29;20179;-90
2021/07/10 06:25:18;;;;;;;18.70;8.27;;;22.10;99.90;;;;;;4918057;29;20184;-92
2021/07/10 06:27:46;;;;;;;11.10;8.40;;;22.20;99.90;;;;;;4918773;29;20184;-90
2021/07/10 06:30:13;;;;;;;13.82;9.07;;;22.30;99.90;;;;;;4935416;29;20206;-90
2021/07/10 06:32:39;;;;;;;15.40;8.80;;;22.30;99.90;;;;;;4935979;29;20202;-91
2021/07/10 06:35:06;;;;;;;13.98;8.38;;;22.30;99.90;;;;;;4935424;29;20215;-91
2021/07/10 06:37:32;;;;;;;13.43;8.85;;;22.40;99.90;;;;;;4917770;29;20191;-90
2021/07/10 06:39:58;;;;;;;12.32;8.32;;;22.50;99.90;;;;;;4935184;29;20188;-92
2021/07/10 06:42:23;;;;;;;31.63;9.50;;;22.60;99.90;;;;;;4899896;29;20207;-89
2021/07/10 06:44:49;;;;;;;16.08;8.93;;;22.70;99.90;;;;;;4918169;29;20550;-91
2021/07/10 06:47:15;;;;;;;15.82;8.20;;;22.60;99.90;;;;;;4917768;29;20219;-90
2021/07/10 06:49:41;;;;;;;13.60;8.52;;;22.50;99.90;;;;;;4934912;29;20238;-91
2021/07/10 06:52:07;;;;;;;11.20;8.55;;;22.30;99.90;;;;;;4935028;29;20188;-90
2021/07/10 06:54:33;;;;;;;11.25;8.45;;;22.30;99.90;;;;;;4934780;29;20188;-91
2021/07/10 06:56:59;;;;;;;15.07;8.65;;;22.40;99.90;;;;;;4935589;29;20667;-93
2021/07/10 06:59:25;;;;;;;12.35;8.82;;;22.40;99.90;;;;;;4935185;29;20644;-91
2021/07/10 07:01:51;;;;;;;30.80;10.38;;;22.30;99.90;;;;;;4935349;29;20675;-91
2021/07/10 07:04:20;;;;;;;11.30;8.90;;;22.40;99.90;;;;;;4918199;29;20695;-90
2021/07/10 07:06:46;;;;;;;12.05;8.23;;;22.50;99.90;;;;;;4935344;29;20180;-93
2021/07/10 07:09:12;;;;;;;10.73;9.27;;;22.50;99.90;;;;;;4918882;29;20188;-91
2021/07/10 07:11:38;;;;;;;18.52;8.80;;;22.50;99.90;;;;;;4935752;29;20194;-89
2021/07/10 07:14:05;;;;;;;15.07;8.65;;;22.60;99.90;;;;;;4935760;29;20637;-90
2021/07/10 07:16:31;;;;;;;10.77;8.10;;;22.70;99.90;;;;;;4901268;29;20696;-91
2021/07/10 07:18:57;;;;;;;10.02;8.35;;;22.80;99.90;;;;;;4917043;29;20184;-92
2021/07/10 07:21:24;;;;;;;14.32;8.30;;;22.90;99.90;;;;;;4934656;29;20565;-91
2021/07/10 07:23:50;;;;;;;10.25;7.93;;;23.10;99.90;;;;;;4921096;29;20194;-90
2021/07/10 07:26:18;;;;;;;11.40;7.95;;;23.10;99.90;;;;;;4905102;29;20706;-88
2021/07/10 07:28:45;;;;;;;12.23;7.68;;;22.80;99.90;;;;;;4921199;29;20195;-90
2021/07/10 07:31:10;;;;;;;11.75;8.70;;;22.50;99.90;;;;;;4906250;29;20185;-91
2021/07/10 07:33:36;;;;;;;9.90;8.48;;;22.40;99.90;;;;;;4939055;29;20231;-91
2021/07/10 07:36:03;;;;;;;13.32;8.82;;;22.30;99.90;;;;;;4922456;29;20176;-89
2021/07/10 07:38:29;;;;;;;13.38;7.85;;;22.40;99.90;;;;;;4906780;29;20187;-90
2021/07/10 07:40:55;;;;;;;12.75;8.05;;;22.40;99.90;;;;;;4939164;29;20202;-90
2021/07/10 07:43:21;;;;;;;14.05;7.30;;;22.50;99.90;;;;;;4921962;29;20626;-90
2021/07/10 07:45:46;;;;;;;8.23;6.95;;;22.60;99.90;;;;;;4922737;29;20184;-90
2021/07/10 07:48:12;;;;;;;9.88;6.38;;;22.60;99.90;;;;;;4922790;29;20546;-92
2021/07/10 07:50:38;;;;;;;7.70;5.93;;;22.60;99.90;;;;;;4925546;29;20243;-91
2021/07/10 07:53:03;;;;;;;9.90;7.03;;;22.60;99.90;;;;;;4928089;29;20184;-91
2021/07/10 07:55:29;;;;;;;6.93;5.63;;;22.60;99.90;;;;;;4922170;29;20191;-89
2021/07/10 07:57:55;;;;;;;9.55;5.30;;;22.50;99.90;;;;;;4939408;29;20577;-89
2021/07/10 08:00:24;;;;;;;7.82;6.13;;;22.50;99.90;;;;;;4937482;29;20290;-87
2021/07/10 08:02:50;;;;;;;6.88;5.13;;;22.50;99.90;;;;;;4918181;29;20195;-90
2021/07/10 08:05:17;;;;;;;8.60;6.28;;;22.50;99.90;;;;;;4935416;29;20564;-90
2021/07/10 08:07:43;;;;;;;8.95;6.22;;;22.30;99.90;;;;;;4931667;29;20188;-90
2021/07/10 08:10:12;;;;;;;9.38;6.40;;;22.30;99.90;;;;;;4901646;29;20194;-89
2021/07/10 08:12:39;;;;;;;11.77;6.00;;;22.30;99.90;;;;;;4919615;29;20252;-92
2021/07/10 08:15:07;;;;;;;7.68;5.63;;;22.30;99.90;;;;;;4928276;29;20251;-93
2021/07/10 08:17:33;;;;;;;11.20;5.65;;;22.40;99.90;;;;;;4918079;29;20642;-90
2021/07/10 08:19:59;;;;;;;9.80;5.90;;;22.40;99.90;;;;;;4914718;29;20188;-89
2021/07/10 08:22:24;;;;;;;9.48;5.85;;;22.50;99.90;;;;;;4936983;29;20306;-87
2021/07/10 08:24:50;;;;;;;11.75;5.60;;;22.50;99.90;;;;;;4913044;29;20200;-90
2021/07/10 08:27:16;;;;;;;10.43;5.45;;;22.50;99.90;;;;;;4923305;29;20195;-90
2021/07/10 08:29:42;;;;;;;10.05;6.60;;;22.50;99.90;;;;;;4936404;29;20196;-92
2021/07/10 08:32:08;;;;;;;9.52;5.82;;;22.60;99.90;;;;;;4935697;29;20298;-91
2021/07/10 08:34:34;;;;;;;11.45;5.85;;;22.40;99.90;;;;;;4939116;29;20190;-91
2021/07/10 08:37:02;;;;;;;10.98;6.20;;;22.40;99.90;;;;;;4922084;29;20252;-89
2021/07/10 08:39:28;;;;;;;6.57;5.40;;;22.30;99.90;;;;;;4919841;29;20211;-90
2021/07/10 08:41:54;;;;;;;18.23;6.80;;;22.20;99.90;;;;;;4907440;29;20218;-92
2021/07/10 08:44:20;;;;;;;8.70;5.95;;;22.30;99.90;;;;;;4919885;29;20184;-90
2021/07/10 08:46:46;;;;;;;12.63;6.50;;;22.40;99.90;;;;;;4934720;29;20568;-89
2021/07/10 08:49:16;;;;;;;8.10;5.75;;;22.50;99.90;;;;;;4935502;29;20233;-89
2021/07/10 08:51:46;;;;;;;9.82;6.60;;;22.70;99.90;;;;;;4938197;29;20180;-91
2021/07/10 08:54:14;;;;;;;13.57;6.35;;;22.80;99.90;;;;;;4905114;29;20255;-90
2021/07/10 08:56:40;;;;;;;7.70;5.75;;;23.00;99.90;;;;;;4912830;29;20266;-94
2021/07/10 08:59:13;;;;;;;9.80;5.80;;;23.20;99.90;;;;;;4929319;29;20196;-93
2021/07/10 09:01:40;;;;;;;9.13;5.90;;;23.30;99.90;;;;;;4920726;29;20746;-93
2021/07/10 09:04:06;;;;;;;8.82;5.35;;;23.40;99.90;;;;;;4904765;29;20191;-89
2021/07/10 09:06:32;;;;;;;6.63;5.85;;;23.60;99.90;;;;;;4935822;29;20191;-89
2021/07/10 09:09:00;;;;;;;6.18;5.13;;;23.60;99.90;;;;;;4919108;29;20200;-89
2021/07/10 09:11:26;;;;;;;5.25;4.43;;;23.60;99.90;;;;;;4919491;29;20187;-89
2021/07/10 09:13:54;;;;;;;8.00;4.82;;;23.60;99.90;;;;;;4935673;29;20722;-92
2021/07/10 09:16:29;;;;;;;15.60;8.65;;;23.60;99.90;;;;;;4931647;29;20223;-88
2021/07/10 09:19:00;;;;;;;6.72;4.47;;;23.40;99.90;;;;;;4934383;29;20691;-91
2021/07/10 09:21:38;;;;;;;6.25;4.55;;;23.40;99.90;;;;;;4912769;29;20668;-91
2021/07/10 09:24:23;;;;;;;9.30;4.38;;;23.40;99.90;;;;;;4934420;29;20210;-90
2021/07/10 09:26:52;;;;;;;7.55;4.82;;;23.40;99.90;;;;;;4916269;29;20552;-90
2021/07/10 09:29:20;;;;;;;5.45;4.80;;;23.50;99.90;;;;;;4905010;29;20194;-90
2021/07/10 09:31:48;;;;;;;9.15;4.47;;;23.40;99.90;;;;;;4934201;29;20212;-89
2021/07/10 09:34:17;;;;;;;6.47;4.40;;;23.40;99.90;;;;;;4917459;29;20191;-89
2021/07/10 09:36:52;;;;;;;8.45;4.43;;;23.50;99.90;;;;;;4933919;29;20176;-90
2021/07/10 09:39:18;;;;;;;5.40;3.30;;;23.60;99.90;;;;;;4932641;29;20191;-93
2021/07/10 09:41:44;;;;;;;4.43;3.95;;;23.70;99.90;;;;;;4918012;29;20240;-91
2021/07/10 09:44:13;;;;;;;6.47;3.65;;;23.90;99.90;;;;;;4917541;29;20199;-90
2021/07/10 09:46:39;;;;;;;4.55;3.42;;;24.10;99.90;;;;;;4934663;29;20227;-91
2021/07/10 09:49:17;;;;;;;4.68;3.72;;;24.00;99.90;;;;;;4917030;29;20196;-91
2021/07/10 09:51:43;;;;;;;4.32;3.20;;;23.90;99.90;;;;;;4915203;29;20215;-91
2021/07/10 09:54:11;;;;;;;6.85;3.65;;;23.90;99.90;;;;;;4901297;29;20191;-90
2021/07/10 09:56:58;;;;;;;5.93;3.38;;;23.80;99.90;;;;;;4934357;29;20283;-87
2021/07/10 09:59:24;;;;;;;3.95;3.05;;;23.80;99.90;;;;;;4920391;29;20185;-91
2021/07/10 10:01:52;;;;;;;3.65;3.35;;;24.00;99.90;;;;;;4920827;29;20664;-89
2021/07/10 10:04:26;;;;;;;4.57;3.42;;;24.20;99.90;;;;;;4905806;29;20227;-89
2021/07/10 10:06:54;;;;;;;3.75;3.35;;;24.00;99.90;;;;;;4915066;29;20220;-89
2021/07/10 10:09:28;;;;;;;4.40;3.33;;;23.90;99.90;;;;;;4916002;29;20184;-88
2021/07/10 10:12:08;;;;;;;3.67;3.38;;;23.90;99.90;;;;;;4919731;29;20190;-90
2021/07/10 10:14:39;;;;;;;6.35;3.88;;;24.00;99.90;;;;;;4932433;29;20182;-87
2021/07/10 10:17:05;;;;;;;5.47;3.00;;;24.10;99.90;;;;;;4916147;29;20196;-88
2021/07/10 10:19:33;;;;;;;7.90;3.05;;;24.50;99.90;;;;;;4934272;29;20222;-87
2021/07/10 10:22:02;;;;;;;5.45;3.33;;;24.50;99.90;;;;;;4916885;29;20629;-87
2021/07/10 10:24:29;;;;;;;6.95;3.58;;;24.70;99.90;;;;;;4903897;29;20228;-88
2021/07/10 10:26:57;;;;;;;8.52;3.55;;;24.70;99.90;;;;;;4920156;29;20865;-87
2021/07/10 10:29:23;;;;;;;5.22;3.35;;;24.80;99.90;;;;;;4928537;29;20184;-87
2021/07/10 10:31:51;;;;;;;7.15;2.88;;;25.00;99.90;;;;;;4933099;29;20199;-87
2021/07/10 10:34:16;;;;;;;4.85;3.30;;;24.90;99.90;;;;;;4933992;29;20258;-87
2021/07/10 10:36:45;;;;;;;3.88;2.58;;;24.90;99.90;;;;;;4933273;29;20681;-86
2021/07/10 10:39:24;;;;;;;2.90;2.60;;;24.80;99.90;;;;;;4933670;29;20200;-87
2021/07/10 10:41:54;;;;;;;3.42;2.75;;;24.90;99.90;;;;;;4932953;29;20232;-87
2021/07/10 10:44:21;;;;;;;8.48;2.80;;;24.90;99.90;;;;;;4934004;29;20184;-88
2021/07/10 10:46:54;;;;;;;3.58;2.40;;;25.10;99.90;;;;;;4909736;29;20196;-87
2021/07/10 10:49:43;;;;;;;3.10;2.80;;;25.40;99.90;;;;;;4933224;29;20172;-89
2021/07/10 10:52:19;;;;;;;8.40;2.88;;;25.30;99.90;;;;;;4916080;29;20191;-87
2021/07/10 10:55:08;;;;;;;4.68;2.88;;;25.40;99.90;;;;;;4930215;29;20226;-85
2021/07/10 10:57:40;;;;;;;2.97;2.40;;;25.60;99.90;;;;;;4901812;29;20207;-87
2021/07/10 11:00:12;;;;;;;2.45;2.25;;;25.30;99.90;;;;;;4931785;29;20260;-88
2021/07/10 11:02:54;;;;;;;6.05;2.40;;;25.30;99.90;;;;;;4916473;29;20222;-87
2021/07/10 11:05:32;;;;;;;4.03;2.25;;;25.20;99.90;;;;;;4934181;29;20187;-88
2021/07/10 11:08:19;;;;;;;3.53;2.22;;;25.30;99.90;;;;;;4933180;29;20677;-88
2021/07/10 11:10:46;;;;;;;5.35;2.17;;;25.60;99.90;;;;;;4932791;29;20196;-87
2021/07/10 11:13:44;;;;;;;5.97;2.83;;;25.80;99.90;;;;;;4923508;29;20188;-87
2021/07/10 11:16:20;;;;;;;2.72;2.25;;;26.00;99.90;;;;;;4880698;29;20215;-87
2021/07/10 11:18:56;;;;;;;4.13;2.00;;;25.80;99.90;;;;;;4919972;29;20189;-88
2021/07/10 11:21:45;;;;;;;3.97;2.35;;;25.50;99.90;;;;;;4919494;29;20212;-89
2021/07/10 11:24:20;;;;;;;3.42;2.17;;;25.60;99.90;;;;;;4905009;29;20583;-89
2021/07/10 11:26:57;;;;;;;4.13;2.42;;;25.70;99.90;;;;;;4934732;29;20688;-91
2021/07/10 11:29:36;;;;;;;3.90;2.33;;;25.70;99.90;;;;;;4918945;29;20533;-90
2021/07/10 11:32:25;;;;;;;2.80;2.25;;;25.80;99.90;;;;;;4918009;29;20195;-88
2021/07/10 11:34:55;;;;;;;4.40;2.85;;;25.70;99.90;;;;;;4935782;29;20179;-87
2021/07/10 11:37:28;;;;;;;5.10;2.30;;;25.90;99.90;;;;;;4935651;29;20248;-89
2021/07/10 11:40:00;;;;;;;4.57;2.42;;;26.10;99.90;;;;;;4918449;29;20196;-88
2021/07/10 11:42:27;;;;;;;3.22;2.30;;;26.20;99.90;;;;;;4935650;29;20239;-88
2021/07/10 11:45:04;;;;;;;5.38;2.60;;;26.10;99.90;;;;;;4935793;29;20184;-89
2021/07/10 11:47:36;;;;;;;3.72;2.53;;;26.20;99.90;;;;;;4935767;29;20719;-90
2021/07/10 11:50:13;;;;;;;3.83;2.38;;;26.00;99.90;;;;;;4935144;29;20242;-89
2021/07/10 11:52:38;;;;;;;5.30;3.00;;;25.90;99.90;;;;;;4918721;29;20705;-89
2021/07/10 11:55:07;;;;;;;6.18;2.60;;;25.50;99.90;;;;;;4935202;29;20259;-89
2021/07/10 11:57:39;;;;;;;4.40;2.72;;;25.50;99.90;;;;;;4935145;29;20664;-90
2021/07/10 12:00:08;;;;;;;4.03;2.90;;;25.60;99.90;;;;;;4935237;29;20255;-89
2021/07/10 12:02:33;;;;;;;4.63;2.65;;;25.70;99.90;;;;;;4935568;29;20196;-89
2021/07/10 12:05:11;;;;;;;3.05;2.55;;;25.70;99.90;;;;;;4918076;29;20247;-89
2021/07/10 12:07:42;;;;;;;7.43;3.25;;;25.70;99.90;;;;;;4936761;29;20176;-89
2021/07/10 12:10:11;;;;;;;9.75;2.90;;;25.80;99.90;;;;;;4938631;29;20263;-90
2021/07/10 12:12:47;;;;;;;7.07;2.85;;;25.70;99.90;;;;;;4938858;29;20179;-90
2021/07/10 12:15:16;;;;;;;8.93;2.72;;;25.70;99.90;;;;;;4938572;29;20176;-91
2021/07/10 12:17:47;;;;;;;7.68;3.80;;;25.60;99.90;;;;;;4938595;29;20219;-90
2021/07/10 12:20:15;;;;;;;8.52;2.50;;;25.70;99.90;;;;;;4921387;29;20643;-88
2021/07/10 12:22:57;;;;;;;2.75;2.00;;;25.70;99.90;;;;;;4939014;29;20211;-89
2021/07/10 12:25:26;;;;;;;2.83;2.58;;;25.80;99.90;;;;;;4938349;29;20186;-89
2021/07/10 12:27:54;;;;;;;3.22;2.03;;;26.00;99.90;;;;;;4921654;29;20172;-91
2021/07/10 12:30:50;;;;;;;3.90;1.83;;;25.70;99.90;;;;;;4937900;29;20215;-91
2021/07/10 12:33:26;;;;;;;5.18;2.67;;;25.50;99.90;;;;;;4937866;29;20168;-90
2021/07/10 12:36:16;;;;;;;3.55;1.77;;;25.50;99.90;;;;;;4935936;29;20183;-90
2021/07/10 12:39:08;;;;;;;5.70;2.00;;;25.50;99.90;;;;;;4938693;29;20176;-90
2021/07/10 12:41:55;;;;;;;4.20;1.80;;;25.70;99.90;;;;;;4920466;29;20686;-89
2021/07/10 12:44:35;;;;;;;5.82;1.80;;;25.60;99.90;;;;;;4937865;29;20215;-90
2021/07/10 12:47:05;;;;;;;3.95;1.60;;;25.70;99.90;;;;;;4937911;29;20254;-88